CheckWX is a tool to help pilots better visualize weather data.  It is not intended as a substitute for an official pre-flight weather briefing.

01:22:15 UTC

PAFE METAR
Kake Airport
Kake, Alaska, USA
Current

26 mins ago

PAFE 180056Z AUTO 00000KT 10SM CLR 06/04 A2977 RMK AO2 SLP093 T00610044
Observed
Nov-18 @ 00:56 UTC
Visibility
10 SM
Flight Rules
VFR
Cloud Levels
  • Clear skies
Temperature
C / 43°F
Dewpoint
C / 39°F
Humidity
87%
Altimeter
29.77" Hg
Pressure
1008.12 hPa
Previous

3 hours ago

PAFE 172156Z AUTO 17006KT 10SM FEW040 08/06 A2966 RMK AO2 SLP054 T00780056
Observed
Nov-17 @ 21:56 UTC
Wind
  • 170° at 6 KTS
Visibility
10 SM
Flight Rules
VFR
Cloud Levels
  • Few at 4,000' AGL
Temperature
C / 46°F
Dewpoint
C / 43°F
Humidity
87%
Altimeter
29.66" Hg
Pressure
1004.42 hPa
Previous

7 hours ago

PAFE 171756Z AUTO 13008KT 10SM OVC055 08/06 A2944 RMK AO2 SLP982 60000 T00830061 10100 20083 53050
Observed
Nov-17 @ 17:56 UTC
Wind
  • 130° at 8 KTS
Visibility
10 SM
Flight Rules
VFR
Cloud Levels
  • Overcast at 5,500' AGL
Temperature
C / 46°F
Dewpoint
C / 43°F
Humidity
87%
Altimeter
29.44" Hg
Pressure
996.92 hPa